Latest Weather Observations for Ocean Reef

IDW60901

Issued at 9:51 pm WST Sunday 11 December 2016 (issued every 10 minutes, with the page automatically refreshed every 10 minutes)

About weather observations | Map of Perth area stations | Latest observations for Perth area | Other Formats
Station Details ID: 009214 Name: OCEAN REEF Lat: -31.76 Lon: 115.73 Height: 10.0 m
Data from the previous 72 hours. | See also: Recent months at Ocean Reef
Date/Time
WST
Temp
°C
App
Temp
°C
Dew
Point
°C
Rel
Hum
%
Delta-T
°C
Wind Press
QNH
hPa
Press
MSL
hPa
Rain since
9am
mm
Dir  Spd
km/h
Gust
km/h
Spd
kts
Gust
kts
11/09:30pm - - - - - S 20 26 11 14 - - -
11/09:00pm - - - - - SSW 20 28 11 15 - - -
11/08:30pm - - - - - SSW 24 30 13 16 - - -
11/08:00pm - - - - - SSW 28 32 15 17 - - -
11/07:30pm - - - - - SSW 13 17 7 9 - - -
11/07:00pm - - - - - S 26 32 14 17 - - -
11/06:30pm - - - - - S 28 35 15 19 - - -
11/06:00pm - - - - - SSE 26 35 14 19 - - -
11/05:30pm - - - - - SSW 32 37 17 20 - - -
11/05:00pm - - - - - SSW 33 41 18 22 - - -
11/04:30pm - - - - - SW 41 50 22 27 - - -
11/04:00pm - - - - - SW 35 48 19 26 - - -
11/03:30pm - - - - - SW 30 35 16 19 - - -
11/03:00pm - - - - - SSW 22 26 12 14 - - -
11/02:30pm - - - - - S 22 26 12 14 - - -
11/02:00pm - - - - - SSW 24 28 13 15 - - -
11/01:30pm - - - - - SSW 24 30 13 16 - - -
11/01:00pm - - - - - SSW 30 35 16 19 - - -
11/12:30pm - - - - - SSW 30 35 16 19 - - -
11/12:00pm - - - - - SSW 30 33 16 18 - - -
11/11:30am - - - - - SSW 26 30 14 16 - - -
11/11:00am - - - - - SSW 24 30 13 16 - - -
11/10:30am - - - - - SSW 17 22 9 12 - - -
11/10:00am - - - - - SSW 19 26 10 14 - - -
11/09:30am - - - - - S 24 32 13 17 - - -
11/09:00am - - - - - SSW 20 26 11 14 - - -
11/08:30am - - - - - SW 22 30 12 16 - - -
11/08:00am - - - - - SSW 17 20 9 11 - - -
11/07:30am - - - - - SSW 19 24 10 13 - - -
11/07:00am - - - - - SSW 13 15 7 8 - - -
11/06:30am - - - - - SSE 7 11 4 6 - - -
11/06:00am - - - - - SE 4 7 2 4 - - -
11/05:30am - - - - - N 4 7 2 4 - - -
11/05:00am - - - - - ENE 4 9 2 5 - - -
11/04:30am - - - - - NE 9 11 5 6 - - -
11/04:00am - - - - - WNW 9 15 5 8 - - -
11/03:30am - - - - - NW 13 15 7 8 - - -
11/03:00am - - - - - N 11 13 6 7 - - -
11/02:30am - - - - - ENE 2 7 1 4 - - -
11/02:00am - - - - - ENE 6 11 3 6 - - -
11/01:30am - - - - - SSW 13 17 7 9 - - -
11/01:00am - - - - - SW 13 17 7 9 - - -
11/12:30am - - - - - SSW 11 17 6 9 - - -
11/12:00am - - - - - SW 11 13 6 7 - - -
 
Date/Time
WST
Temp
°C
App
Temp
°C
Dew
Point
°C
Rel
Hum
%
Delta-T
°C
Wind Press
QNH
hPa
Press
MSL
hPa
Rain since
9am
mm
Dir  Spd
km/h
Gust
km/h
Spd
kts
Gust
kts
10/11:30pm - - - - - SSW 13 17 7 9 - - -
10/11:00pm - - - - - SSW 17 20 9 11 - - -
10/10:30pm - - - - - SSW 17 22 9 12 - - -
10/10:00pm - - - - - SW 17 20 9 11 - - -
10/09:30pm - - - - - SW 19 22 10 12 - - -
10/09:00pm - - - - - SSW 17 20 9 11 - - -
10/08:30pm - - - - - SW 19 22 10 12 - - -
10/08:00pm - - - - - WSW 17 19 9 10 - - -
10/07:30pm - - - - - W 17 19 9 10 - - -
10/07:00pm - - - - - WNW 15 17 8 9 - - -
10/06:30pm - - - - - WNW 9 11 5 6 - - -
10/06:00pm - - - - - NW 9 11 5 6 - - -
10/05:30pm - - - - - WNW 11 13 6 7 - - -
10/05:00pm - - - - - WNW 9 11 5 6 - - -
10/04:30pm - - - - - WNW 9 11 5 6 - - -
10/04:00pm - - - - - NW 11 13 6 7 - - -
10/03:30pm - - - - - NNW 13 15 7 8 - - -
10/03:00pm - - - - - NW 15 17 8 9 - - -
10/02:30pm - - - - - NNW 17 19 9 10 - - -
10/02:00pm - - - - - NNW 19 20 10 11 - - -
10/01:30pm - - - - - NNW 17 20 9 11 - - -
10/01:00pm - - - - - NNW 22 28 12 15 - - -
10/12:30pm - - - - - NNW 26 28 14 15 - - -
10/12:00pm - - - - - NW 28 33 15 18 - - -
10/11:54am - - - - - NW 28 33 15 18 - - -
10/11:30am - - - - - NW 11 15 6 8 - - -
10/11:00am - - - - - NW 7 7 4 4 - - -
10/10:30am - - - - - NW 9 13 5 7 - - -
10/10:00am - - - - - WNW 13 19 7 10 - - -
10/09:30am - - - - - NNE 22 33 12 18 - - -
10/09:00am - - - - - NNE 19 32 10 17 - - -
10/08:30am - - - - - NE 28 39 15 21 - - -
10/08:00am - - - - - NE 19 32 10 17 - - -
10/07:30am - - - - - ENE 20 32 11 17 - - -
10/07:00am - - - - - E 20 30 11 16 - - -
10/06:30am - - - - - E 24 33 13 18 - - -
10/06:00am - - - - - E 19 26 10 14 - - -
10/05:30am - - - - - SE 13 17 7 9 - - -
10/05:00am - - - - - SE 9 11 5 6 - - -
10/04:30am - - - - - E 11 13 6 7 - - -
10/04:00am - - - - - SE 7 9 4 5 - - -
10/03:30am - - - - - ESE 9 11 5 6 - - -
10/03:00am - - - - - SSE 9 9 5 5 - - -
10/02:30am - - - - - SE 11 17 6 9 - - -
10/02:00am - - - - - SE 13 13 7 7 - - -
10/01:30am - - - - - SSE 13 13 7 7 - - -
10/01:00am - - - - - SSE 9 11 5 6 - - -
10/12:30am - - - - - SSE 11 13 6 7 - - -
10/12:00am - - - - - SSE 9 11 5 6 - - -
 
Date/Time
WST
Temp
°C
App
Temp
°C
Dew
Point
°C
Rel
Hum
%
Delta-T
°C
Wind Press
QNH
hPa
Press
MSL
hPa
Rain since
9am
mm
Dir  Spd
km/h
Gust
km/h
Spd
kts
Gust
kts
09/11:30pm - - - - - S 11 13 6 7 - - -
09/11:00pm - - - - - SSW 13 17 7 9 - - -
09/10:30pm - - - - - SSW 15 17 8 9 - - -
09/10:00pm - - - - - S 9 15 5 8 - - -
09/09:30pm - - - - - S 15 19 8 10 - - -
09/09:00pm - - - - - S 19 22 10 12 - - -
09/08:30pm - - - - - S 20 26 11 14 - - -
09/08:00pm - - - - - S 22 28 12 15 - - -
09/07:30pm - - - - - S 30 35 16 19 - - -
09/07:00pm - - - - - S 32 37 17 20 - - -
09/06:30pm - - - - - S 33 41 18 22 - - -
09/06:00pm - - - - - S 32 39 17 21 - - -
09/05:30pm - - - - - S 33 43 18 23 - - -
09/05:00pm - - - - - S 33 41 18 22 - - -
09/04:30pm - - - - - S 32 39 17 21 - - -
09/04:00pm - - - - - S 30 35 16 19 - - -
09/03:30pm - - - - - S 26 30 14 16 - - -
09/03:00pm - - - - - S 26 33 14 18 - - -
09/02:30pm - - - - - SSW 26 32 14 17 - - -
09/02:00pm - - - - - S 22 28 12 15 - - -
09/01:30pm - - - - - SSW 20 28 11 15 - - -
09/01:00pm - - - - - SSW 24 28 13 15 - - -
09/12:30pm - - - - - SW 20 26 11 14 - - -
09/12:00pm - - - - - SSW 17 19 9 10 - - -
09/11:30am - - - - - SW 13 17 7 9 - - -
09/11:00am - - - - - ENE 9 17 5 9 - - -
09/10:30am - - - - - NE 11 17 6 9 - - -
09/10:00am - - - - - NE 17 26 9 14 - - -
09/09:30am - - - - - NE 15 26 8 14 - - -
09/09:00am - - - - - ENE 20 33 11 18 - - -
09/08:30am - - - - - ENE 24 35 13 19 - - -
09/08:00am - - - - - ENE 20 33 11 18 - - -
09/07:30am - - - - - E 28 39 15 21 - - -
09/07:00am - - - - - E 26 39 14 21 - - -
09/06:30am - - - - - E 24 35 13 19 - - -
09/06:00am - - - - - E 26 37 14 20 - - -
09/05:30am - - - - - E 26 35 14 19 - - -
09/05:00am - - - - - E 28 44 15 24 - - -
09/04:30am - - - - - E 22 30 12 16 - - -
09/04:00am - - - - - E 24 33 13 18 - - -
09/03:30am - - - - - E 20 30 11 16 - - -
09/03:00am - - - - - E 19 26 10 14 - - -
09/02:30am - - - - - E 15 19 8 10 - - -
09/02:00am - - - - - E 17 22 9 12 - - -
09/01:30am - - - - - ESE 13 19 7 10 - - -
09/01:00am - - - - - SSE 13 15 7 8 - - -
09/12:30am - - - - - SE 9 11 5 6 - - -
09/12:00am - - - - - SSE 11 11 6 6 - - -
 
Date/Time
WST
Temp
°C
App
Temp
°C
Dew
Point
°C
Rel
Hum
%
Delta-T
°C
Wind Press
QNH
hPa
Press
MSL
hPa
Rain since
9am
mm
Dir  Spd
km/h
Gust
km/h
Spd
kts
Gust
kts
08/11:30pm - - - - - SSE 11 13 6 7 - - -
08/11:00pm - - - - - SE 13 17 7 9 - - -
08/10:30pm - - - - - SSE 15 17 8 9 - - -
08/10:00pm - - - - - SSE 13 17 7 9 - - -

Latest Capital City Observations: Canberra | Sydney | Melbourne | Brisbane | Adelaide | Perth | Hobart | Darwin

Other Formats:

Comma delimited format used in spreadsheet applications
http://www.bom.gov.au/fwo/IDW60901/IDW60901.94607.axf

JavaScript Object Notation format (JSON) in row-major order
http://www.bom.gov.au/fwo/IDW60901/IDW60901.94607.json